createdAt,value
2017-08-04T00:00:12.831Z,74.40
2017-08-04T00:02:41.150Z,74.40
2017-08-04T00:05:09.457Z,74.00
2017-08-04T00:07:37.787Z,75.10
2017-08-04T00:10:06.095Z,74.60
2017-08-04T00:12:34.425Z,74.60
2017-08-04T00:15:02.795Z,74.90
2017-08-04T00:17:31.119Z,75.50
2017-08-04T00:19:59.431Z,75.10
2017-08-04T00:22:27.758Z,75.20
2017-08-04T00:24:56.065Z,75.70
2017-08-04T00:27:24.388Z,75.80
2017-08-04T00:29:52.695Z,76.00
2017-08-04T00:32:20.995Z,75.90
2017-08-04T00:34:49.329Z,76.20
2017-08-04T00:37:17.637Z,76.20
2017-08-04T00:39:45.984Z,76.50
2017-08-04T00:42:14.289Z,76.80
2017-08-04T00:44:42.641Z,76.80
2017-08-04T00:47:10.952Z,76.30
2017-08-04T00:49:39.308Z,76.40
2017-08-04T00:52:07.607Z,77.00
2017-08-04T00:54:35.925Z,77.20
2017-08-04T00:57:04.257Z,77.00
2017-08-04T00:59:32.586Z,77.20
2017-08-04T01:02:00.927Z,77.30
2017-08-04T01:04:29.263Z,76.80
2017-08-04T01:06:57.596Z,76.50
2017-08-04T01:09:25.905Z,76.50
2017-08-04T01:11:54.244Z,76.40
2017-08-04T01:14:21.799Z,76.40
2017-08-04T01:16:50.111Z,76.10
2017-08-04T01:19:18.436Z,76.20
2017-08-04T01:21:46.762Z,76.20
2017-08-04T01:24:15.088Z,76.50
2017-08-04T01:26:43.411Z,76.50
2017-08-04T01:29:11.738Z,76.60
2017-08-04T01:31:40.067Z,76.80
2017-08-04T01:34:08.395Z,76.60
2017-08-04T01:36:36.700Z,76.20
2017-08-04T01:39:05.013Z,76.60
2017-08-04T01:41:33.338Z,76.30
2017-08-04T01:44:01.655Z,76.40
2017-08-04T01:46:29.985Z,76.70
2017-08-04T01:48:58.310Z,77.10
2017-08-04T01:51:26.635Z,76.80
2017-08-04T01:53:54.954Z,76.50
2017-08-04T01:56:23.297Z,76.30
2017-08-04T01:58:51.627Z,76.40
2017-08-04T02:01:19.941Z,76.60
2017-08-04T02:03:47.506Z,76.60
2017-08-04T02:06:15.839Z,77.00
2017-08-04T02:08:44.163Z,77.20
2017-08-04T02:11:12.484Z,77.10
2017-08-04T02:13:40.810Z,77.10
2017-08-04T02:16:09.162Z,77.50
2017-08-04T02:18:37.483Z,77.10
2017-08-04T02:21:05.792Z,77.20
2017-08-04T02:23:34.140Z,76.90
2017-08-04T02:26:02.452Z,77.00
2017-08-04T02:28:30.764Z,77.00
2017-08-04T02:30:59.104Z,77.10
2017-08-04T02:33:27.407Z,77.70
2017-08-04T02:35:55.925Z,77.90
2017-08-04T02:38:24.243Z,78.20
2017-08-04T02:40:51.798Z,78.20
2017-08-04T02:43:20.103Z,78.40
2017-08-04T02:45:48.438Z,78.00
2017-08-04T02:48:16.739Z,77.80
2017-08-04T02:50:45.069Z,77.80
2017-08-04T02:53:13.379Z,78.20
2017-08-04T02:55:41.690Z,78.50
2017-08-04T02:58:10.020Z,78.70
2017-08-04T03:00:38.320Z,78.70
2017-08-04T03:03:06.653Z,78.60
2017-08-04T03:05:34.950Z,79.40
2017-08-04T03:08:03.281Z,79.70
2017-08-04T03:10:31.587Z,79.70
2017-08-04T03:12:59.150Z,79.80
2017-08-04T03:15:27.463Z,80.10
2017-08-04T03:17:55.796Z,80.00
2017-08-04T03:20:24.096Z,80.10
2017-08-04T03:22:52.397Z,79.90
2017-08-04T03:25:20.729Z,80.00
2017-08-04T03:27:49.038Z,79.90
2017-08-04T03:30:17.361Z,79.80
2017-08-04T03:32:45.665Z,79.60
2017-08-04T03:35:13.996Z,79.60
2017-08-04T03:37:42.311Z,80.00
2017-08-04T03:40:10.644Z,80.20
2017-08-04T03:42:38.953Z,80.10
2017-08-04T03:45:07.256Z,80.40
2017-08-04T03:47:35.593Z,80.70
2017-08-04T03:50:03.910Z,81.10
2017-08-04T03:52:32.244Z,80.80
2017-08-04T03:55:00.561Z,80.70
2017-08-04T03:57:28.889Z,80.40
2017-08-04T03:59:57.200Z,80.70
2017-08-04T04:02:25.531Z,80.70
2017-08-04T04:04:53.845Z,80.50
2017-08-04T04:07:22.156Z,80.30
2017-08-04T04:09:50.476Z,80.50
2017-08-04T04:12:18.780Z,80.80
2017-08-04T04:14:47.109Z,80.60
2017-08-04T04:17:15.406Z,80.80
2017-08-04T04:19:43.728Z,80.70
2017-08-04T04:22:12.028Z,81.00
2017-08-04T04:24:40.351Z,80.90
2017-08-04T04:27:08.660Z,80.80
2017-08-04T04:29:37.006Z,80.60
2017-08-04T04:32:05.315Z,80.50
2017-08-04T04:34:33.615Z,81.70
2017-08-04T04:37:01.944Z,80.80
2017-08-04T04:39:30.256Z,81.00
2017-08-04T04:41:58.580Z,80.90
2017-08-04T04:44:26.890Z,80.90
2017-08-04T04:46:55.221Z,80.70
2017-08-04T04:49:23.532Z,80.60
2017-08-04T04:51:51.088Z,80.60
2017-08-04T04:54:19.403Z,80.20
2017-08-04T04:56:47.727Z,80.10
2017-08-04T04:59:16.026Z,80.40
2017-08-04T05:01:44.348Z,80.10
2017-08-04T05:04:12.677Z,80.00
2017-08-04T05:06:41.004Z,80.10
2017-08-04T05:09:09.338Z,79.90
2017-08-04T05:11:36.878Z,79.90
2017-08-04T05:14:05.215Z,79.40
2017-08-04T05:16:33.528Z,79.20
2017-08-04T05:19:01.868Z,79.10
2017-08-04T05:21:30.180Z,78.80
2017-08-04T05:23:58.483Z,78.30
2017-08-04T05:26:26.821Z,77.90
2017-08-04T05:28:55.131Z,77.90
2017-08-04T05:31:23.475Z,78.00
2017-08-04T05:33:51.786Z,77.90
2017-08-04T05:36:20.001Z,77.80
2017-08-04T05:38:48.299Z,76.90
2017-08-04T05:41:15.884Z,76.90
2017-08-04T05:43:44.191Z,75.90
2017-08-04T05:46:11.728Z,75.90
2017-08-04T05:48:40.057Z,74.90
2017-08-04T05:51:08.363Z,74.00
2017-08-04T05:53:36.692Z,73.30
2017-08-04T05:56:04.996Z,71.80
2017-08-04T05:58:33.322Z,71.10
2017-08-04T06:01:01.649Z,70.40
2017-08-04T06:03:29.976Z,69.50
2017-08-04T06:05:58.292Z,69.40
2017-08-04T06:08:26.641Z,68.80
2017-08-04T06:10:54.944Z,68.70
2017-08-04T06:13:23.255Z,68.10
2017-08-04T06:15:51.584Z,67.90
2017-08-04T06:18:19.892Z,68.40
2017-08-04T06:20:48.217Z,67.70
2017-08-04T06:23:16.525Z,68.10
2017-08-04T06:25:44.856Z,68.00
2017-08-04T06:28:13.165Z,67.80
2017-08-04T06:30:41.484Z,68.00
2017-08-04T06:33:09.787Z,67.90
2017-08-04T06:35:38.116Z,69.20
2017-08-04T06:38:06.419Z,68.80
2017-08-04T06:40:34.768Z,69.40
2017-08-04T06:43:03.069Z,69.80
2017-08-04T06:45:31.374Z,69.90
2017-08-04T06:47:59.701Z,70.10
2017-08-04T06:50:50.817Z,70.30
2017-08-04T06:53:30.861Z,70.50
2017-08-04T06:56:08.794Z,70.40
2017-08-04T06:58:37.148Z,70.50
2017-08-04T07:01:05.447Z,70.50
2017-08-04T07:03:33.775Z,70.40
2017-08-04T07:06:02.091Z,70.80
2017-08-04T07:08:30.442Z,70.80
2017-08-04T07:10:58.748Z,70.80
2017-08-04T07:13:27.078Z,71.10
2017-08-04T07:15:55.382Z,70.90
2017-08-04T07:18:23.712Z,70.70
2017-08-04T07:20:52.031Z,70.00
2017-08-04T07:23:20.363Z,69.80
2017-08-04T07:25:48.672Z,69.90
2017-08-04T07:28:17.023Z,69.70
2017-08-04T07:30:45.339Z,69.30
2017-08-04T07:33:13.647Z,69.00
2017-08-04T07:35:41.973Z,69.00
2017-08-04T07:38:10.275Z,69.40
2017-08-04T07:40:38.595Z,69.20
2017-08-04T07:43:06.909Z,69.00
2017-08-04T07:45:35.252Z,68.90
2017-08-04T07:48:03.563Z,69.50
2017-08-04T07:50:31.913Z,69.40
2017-08-04T07:53:00.243Z,69.10
2017-08-04T07:55:28.563Z,68.70
2017-08-04T07:57:56.895Z,67.90
2017-08-04T08:00:25.200Z,67.80
2017-08-04T08:02:53.528Z,67.70
2017-08-04T08:05:21.837Z,67.50
2017-08-04T08:07:50.164Z,66.30
2017-08-04T08:10:18.481Z,65.90
2017-08-04T08:12:46.803Z,65.80
2017-08-04T08:15:15.116Z,65.40
2017-08-04T08:17:43.447Z,65.40
2017-08-04T08:20:11.757Z,63.80
2017-08-04T08:22:40.075Z,63.70
2017-08-04T08:25:08.399Z,64.50
2017-08-04T08:27:36.699Z,65.40
2017-08-04T08:30:05.035Z,65.90
2017-08-04T08:32:32.571Z,65.90
2017-08-04T08:35:00.903Z,65.80
2017-08-04T08:37:29.217Z,65.20
2017-08-04T08:39:57.550Z,64.20
2017-08-04T08:42:25.847Z,62.90
2017-08-04T08:44:54.151Z,61.70
2017-08-04T08:47:22.475Z,61.60
2017-08-04T08:49:50.778Z,61.10
2017-08-04T08:52:19.109Z,60.20
2017-08-04T08:54:47.420Z,59.80
2017-08-04T08:57:15.751Z,59.10
2017-08-04T08:59:44.054Z,58.60
2017-08-04T09:02:12.375Z,58.60
2017-08-04T09:04:40.687Z,58.80
2017-08-04T09:07:09.028Z,58.30
2017-08-04T09:09:37.327Z,57.40
2017-08-04T09:12:05.636Z,57.00
2017-08-04T09:14:33.964Z,56.60
2017-08-04T09:17:02.274Z,56.40
2017-08-04T09:19:30.597Z,56.30
2017-08-04T09:21:58.902Z,55.90
2017-08-04T09:24:27.229Z,55.30
2017-08-04T09:26:55.529Z,55.60
2017-08-04T09:29:23.853Z,55.40
2017-08-04T09:31:52.164Z,54.40
2017-08-04T09:34:20.498Z,55.00
2017-08-04T09:36:48.808Z,55.20
2017-08-04T09:39:17.111Z,54.60
2017-08-04T09:41:45.435Z,54.90
2017-08-04T09:44:13.739Z,55.10
2017-08-04T09:46:42.072Z,55.40
2017-08-04T09:49:10.398Z,55.90
2017-08-04T09:51:38.735Z,56.10
2017-08-04T09:54:07.045Z,56.20
2017-08-04T09:56:35.367Z,56.10
2017-08-04T09:59:03.664Z,55.60
2017-08-04T10:01:31.996Z,54.60
2017-08-04T10:04:00.306Z,53.70
2017-08-04T10:06:28.611Z,52.10
2017-08-04T10:08:56.937Z,52.60
2017-08-04T10:11:25.244Z,52.30
2017-08-04T10:13:53.567Z,53.50
2017-08-04T10:16:21.881Z,52.90
2017-08-04T10:18:50.217Z,51.40
2017-08-04T10:21:18.523Z,50.70
2017-08-04T10:23:46.850Z,51.80
2017-08-04T10:26:15.152Z,52.10
2017-08-04T10:28:43.516Z,51.80
2017-08-04T10:31:11.823Z,51.80
2017-08-04T10:33:40.127Z,52.00
2017-08-04T10:36:08.459Z,52.50
2017-08-04T10:38:36.781Z,52.80
2017-08-04T10:41:05.113Z,53.10
2017-08-04T10:43:33.443Z,53.00
2017-08-04T10:46:01.772Z,52.60
2017-08-04T10:48:30.092Z,52.50
2017-08-04T10:50:58.415Z,51.10
2017-08-04T10:53:25.955Z,51.10
2017-08-04T10:55:54.302Z,48.40
2017-08-04T10:58:22.606Z,48.60
2017-08-04T11:00:50.911Z,47.70
2017-08-04T11:03:19.261Z,47.50
2017-08-04T11:05:47.567Z,46.50
2017-08-04T11:08:15.913Z,46.60
2017-08-04T11:10:44.218Z,46.00
2017-08-04T11:13:12.544Z,42.70
2017-08-04T11:15:40.849Z,41.10
2017-08-04T11:18:09.180Z,42.00
2017-08-04T11:20:37.492Z,42.10
2017-08-04T11:23:05.818Z,42.60
2017-08-04T11:25:34.118Z,41.20
2017-08-04T11:28:02.429Z,40.70
2017-08-04T11:30:30.751Z,39.40
2017-08-04T11:32:59.054Z,40.10
2017-08-04T11:35:27.371Z,40.80
2017-08-04T11:37:55.683Z,41.00
2017-08-04T11:40:24.003Z,40.90
2017-08-04T11:42:52.307Z,41.90
2017-08-04T11:45:20.655Z,42.10
2017-08-04T11:47:48.956Z,42.80
2017-08-04T11:50:17.257Z,41.40
2017-08-04T11:52:45.611Z,39.80
2017-08-04T11:55:13.910Z,40.20
2017-08-04T11:57:42.273Z,40.60
2017-08-04T12:00:10.577Z,40.90
2017-08-04T12:02:38.908Z,40.30
2017-08-04T12:05:07.225Z,40.80
2017-08-04T12:07:35.556Z,40.80
2017-08-04T12:10:03.864Z,40.00
2017-08-04T12:12:32.200Z,39.30
2017-08-04T12:15:00.508Z,38.90
2017-08-04T12:17:28.816Z,38.60
2017-08-04T12:19:57.159Z,39.10
2017-08-04T12:22:25.479Z,39.30
2017-08-04T12:24:53.806Z,38.90
2017-08-04T12:27:22.115Z,39.10
2017-08-04T12:29:50.464Z,38.90
2017-08-04T12:32:18.772Z,38.10
2017-08-04T12:34:47.113Z,39.10
2017-08-04T12:37:15.430Z,38.50
2017-08-04T12:39:43.774Z,37.90
2017-08-04T12:42:12.091Z,38.00
2017-08-04T12:44:40.391Z,37.10
2017-08-04T12:47:08.716Z,38.00
2017-08-04T12:49:37.027Z,38.00
2017-08-04T12:52:05.457Z,38.90
2017-08-04T12:54:33.761Z,38.50
2017-08-04T12:57:02.107Z,37.70
2017-08-04T12:59:30.414Z,37.00
2017-08-04T13:01:58.770Z,36.50
2017-08-04T13:04:27.080Z,36.70
2017-08-04T13:06:55.426Z,36.90
2017-08-04T13:09:22.967Z,36.90
2017-08-04T13:11:51.276Z,36.80
2017-08-04T13:14:19.602Z,37.50
2017-08-04T13:16:47.912Z,37.70
2017-08-04T13:19:16.236Z,38.50
2017-08-04T13:21:44.537Z,38.20
2017-08-04T13:24:12.868Z,37.40
2017-08-04T13:26:41.175Z,37.30
2017-08-04T13:29:09.524Z,38.00
2017-08-04T13:31:37.839Z,37.10
2017-08-04T13:34:05.390Z,37.10
2017-08-04T13:36:33.717Z,37.80
2017-08-04T13:39:02.023Z,37.00
2017-08-04T13:41:30.347Z,37.10
2017-08-04T13:43:58.657Z,37.00
2017-08-04T13:46:26.981Z,37.40
2017-08-04T13:48:55.310Z,37.60
2017-08-04T13:51:22.899Z,37.60
2017-08-04T13:53:51.199Z,37.40
2017-08-04T13:56:19.501Z,37.40
2017-08-04T13:58:47.864Z,37.70
2017-08-04T14:01:16.185Z,37.50
2017-08-04T14:03:44.514Z,37.20
2017-08-04T14:06:12.824Z,37.70
2017-08-04T14:08:41.157Z,38.40
2017-08-04T14:11:09.466Z,38.70
2017-08-04T14:13:37.793Z,39.20
2017-08-04T14:16:05.335Z,39.20
2017-08-04T14:18:33.658Z,38.90
2017-08-04T14:21:01.967Z,38.90
2017-08-04T14:23:30.268Z,39.40
2017-08-04T14:25:58.600Z,39.90
2017-08-04T14:28:26.899Z,39.70
2017-08-04T14:30:55.226Z,39.40
2017-08-04T14:33:23.538Z,39.80
2017-08-04T14:35:51.863Z,40.40
2017-08-04T14:38:20.172Z,40.90
2017-08-04T14:40:48.499Z,40.10
2017-08-04T14:43:16.813Z,39.90
2017-08-04T14:45:45.156Z,40.60
2017-08-04T14:48:13.470Z,41.10
2017-08-04T14:50:41.767Z,42.20
2017-08-04T14:53:10.104Z,41.70
2017-08-04T14:55:38.408Z,40.30
2017-08-04T14:58:06.742Z,39.10
2017-08-04T15:00:35.066Z,39.40
2017-08-04T15:03:03.392Z,39.30
2017-08-04T15:05:31.730Z,39.60
2017-08-04T15:08:00.067Z,40.10
2017-08-04T15:10:27.634Z,40.20
2017-08-04T15:12:55.936Z,40.80
2017-08-04T15:15:24.262Z,40.90
2017-08-04T15:17:52.569Z,41.30
2017-08-04T15:20:20.903Z,41.60
2017-08-04T15:22:49.211Z,42.30
2017-08-04T15:25:17.531Z,42.50
2017-08-04T15:27:45.836Z,42.40
2017-08-04T15:30:14.179Z,42.70
2017-08-04T15:32:42.483Z,43.30
2017-08-04T15:35:10.840Z,43.30
2017-08-04T15:37:39.230Z,43.20
2017-08-04T15:40:07.535Z,42.90
2017-08-04T15:42:35.864Z,42.20
2017-08-04T15:45:04.171Z,41.20
2017-08-04T15:47:32.499Z,41.50
2017-08-04T15:50:00.803Z,41.10
2017-08-04T15:52:29.139Z,42.10
2017-08-04T15:54:57.448Z,42.40
2017-08-04T15:57:25.765Z,42.40
2017-08-04T15:59:54.101Z,42.90
2017-08-04T16:02:22.420Z,42.80
2017-08-04T16:04:50.748Z,42.40
2017-08-04T16:07:19.056Z,42.50
2017-08-04T16:09:47.387Z,43.10
2017-08-04T16:12:15.708Z,44.00
2017-08-04T16:14:44.032Z,44.00
2017-08-04T16:17:12.332Z,44.20
2017-08-04T16:19:40.668Z,43.80
2017-08-04T16:22:08.971Z,43.60
2017-08-04T16:24:37.280Z,43.50
2017-08-04T16:27:05.655Z,43.80
2017-08-04T16:29:33.999Z,43.40
2017-08-04T16:32:02.329Z,43.90
2017-08-04T16:34:30.632Z,44.30
2017-08-04T16:36:58.955Z,43.20
2017-08-04T16:39:27.259Z,43.40
2017-08-04T16:41:55.592Z,44.00
2017-08-04T16:44:23.903Z,45.00
2017-08-04T16:46:52.212Z,44.50
2017-08-04T16:49:20.565Z,45.20
2017-08-04T16:51:48.884Z,45.60
2017-08-04T16:54:17.235Z,46.20
2017-08-04T16:56:45.543Z,46.30
2017-08-04T16:59:13.871Z,46.70
2017-08-04T17:01:42.189Z,47.30
2017-08-04T17:04:10.539Z,47.30
2017-08-04T17:06:38.843Z,47.80
2017-08-04T17:09:07.156Z,47.90
2017-08-04T17:11:35.479Z,48.10
2017-08-04T17:14:03.788Z,48.10
2017-08-04T17:16:32.114Z,48.20
2017-08-04T17:19:00.459Z,47.80
2017-08-04T17:21:28.780Z,47.60
2017-08-04T17:23:56.320Z,47.50
2017-08-04T17:26:24.653Z,48.50
2017-08-04T17:28:52.966Z,49.00
2017-08-04T17:31:21.270Z,48.40
2017-08-04T17:33:49.597Z,48.60
2017-08-04T17:36:17.142Z,48.60
2017-08-04T17:38:45.464Z,49.60
2017-08-04T17:41:13.768Z,48.40
2017-08-04T17:43:42.096Z,44.60
2017-08-04T17:46:10.399Z,41.40
2017-08-04T17:48:38.727Z,39.60
2017-08-04T17:51:06.271Z,39.60
2017-08-04T17:53:34.597Z,40.60
2017-08-04T17:56:02.942Z,41.90
2017-08-04T17:58:35.109Z,43.40
2017-08-04T18:01:03.433Z,44.70
2017-08-04T18:03:31.745Z,45.50
2017-08-04T18:05:59.313Z,45.50
2017-08-04T18:08:27.628Z,44.80
2017-08-04T18:10:55.959Z,44.60
2017-08-04T18:13:24.281Z,45.50
2017-08-04T18:15:52.588Z,45.50
2017-08-04T18:18:20.916Z,44.70
2017-08-04T18:20:49.226Z,44.00
2017-08-04T18:23:17.559Z,44.80
2017-08-04T18:25:45.854Z,46.00
2017-08-04T18:28:14.182Z,47.10
2017-08-04T18:30:42.493Z,48.00
2017-08-04T18:33:10.825Z,48.60
2017-08-04T18:35:39.127Z,49.30
2017-08-04T18:38:07.447Z,49.80
2017-08-04T18:40:35.771Z,50.40
2017-08-04T18:43:04.075Z,50.90
2017-08-04T18:45:32.399Z,51.20
2017-08-04T18:48:00.709Z,51.70
2017-08-04T18:50:29.035Z,52.30
2017-08-04T18:52:57.352Z,52.90
2017-08-04T18:55:25.671Z,52.80
2017-08-04T18:57:53.983Z,53.40
2017-08-04T19:00:22.315Z,53.90
2017-08-04T19:02:50.617Z,54.60
2017-08-04T19:05:18.925Z,55.10
2017-08-04T19:07:47.263Z,55.80
2017-08-04T19:10:15.572Z,55.90
2017-08-04T19:12:43.899Z,56.70
2017-08-04T19:15:12.205Z,57.30
2017-08-04T19:17:40.530Z,57.80
2017-08-04T19:20:08.839Z,58.20
2017-08-04T19:22:37.168Z,58.60
2017-08-04T19:25:05.494Z,58.90
2017-08-04T19:27:33.847Z,59.20
2017-08-04T19:30:02.171Z,59.60
2017-08-04T19:32:30.479Z,60.40
2017-08-04T19:34:58.849Z,61.40
2017-08-04T19:37:27.152Z,62.20
2017-08-04T19:39:55.501Z,62.30
2017-08-04T19:42:23.808Z,62.40
2017-08-04T19:44:52.153Z,63.00
2017-08-04T19:47:20.472Z,63.60
2017-08-04T19:49:48.809Z,64.20
2017-08-04T19:52:17.129Z,65.00
2017-08-04T19:54:45.431Z,65.50
2017-08-04T19:57:13.760Z,65.90
2017-08-04T19:59:42.056Z,66.40
2017-08-04T20:02:10.395Z,66.80
2017-08-04T20:04:38.701Z,67.10
2017-08-04T20:07:07.040Z,67.20
2017-08-04T20:09:35.351Z,67.20
2017-08-04T20:12:03.691Z,67.30
2017-08-04T20:14:32.002Z,67.90
2017-08-04T20:17:00.344Z,68.20
2017-08-04T20:19:28.648Z,68.50
2017-08-04T20:21:56.977Z,68.70
2017-08-04T20:24:25.308Z,69.00
2017-08-04T20:26:53.623Z,69.10
2017-08-04T20:29:21.948Z,69.30
2017-08-04T20:31:50.257Z,69.60
2017-08-04T20:34:18.582Z,70.20
2017-08-04T20:36:46.891Z,70.50
2017-08-04T20:39:15.237Z,70.60
2017-08-04T20:41:43.550Z,70.80
2017-08-04T20:44:11.850Z,72.20
2017-08-04T20:46:40.176Z,71.80
2017-08-04T20:49:08.483Z,72.40
2017-08-04T20:51:36.815Z,72.60
2017-08-04T20:54:05.119Z,72.70
2017-08-04T20:56:33.452Z,72.90
2017-08-04T20:59:01.761Z,73.30
2017-08-04T21:01:30.092Z,73.60
2017-08-04T21:03:57.632Z,73.60
2017-08-04T21:06:25.989Z,74.50
2017-08-04T21:08:54.303Z,74.70
2017-08-04T21:11:22.630Z,74.80
2017-08-04T21:13:50.970Z,75.00
2017-08-04T21:16:19.289Z,74.90
2017-08-04T21:18:47.624Z,75.20
2017-08-04T21:21:15.937Z,75.30
2017-08-04T21:23:44.272Z,75.20
2017-08-04T21:26:12.586Z,75.10
2017-08-04T21:28:40.919Z,75.10
2017-08-04T21:31:09.240Z,75.20
2017-08-04T21:33:37.567Z,75.50
2017-08-04T21:36:05.948Z,75.60
2017-08-04T21:38:34.279Z,75.60
2017-08-04T21:41:02.591Z,75.70
2017-08-04T21:43:30.907Z,76.00
2017-08-04T21:45:58.463Z,76.00
2017-08-04T21:48:26.781Z,76.20
2017-08-04T21:50:55.123Z,76.30
2017-08-04T21:53:23.435Z,76.50
2017-08-04T21:55:51.003Z,76.30
2017-08-04T21:58:19.308Z,77.10
2017-08-04T22:00:47.657Z,77.60
2017-08-04T22:03:15.955Z,78.10
2017-08-04T22:05:43.517Z,78.10
2017-08-04T22:08:11.823Z,78.00
2017-08-04T22:10:40.133Z,77.90
2017-08-04T22:13:08.456Z,78.00
2017-08-04T22:15:35.988Z,78.00
2017-08-04T22:18:04.324Z,78.40
2017-08-04T22:20:32.633Z,78.60
2017-08-04T22:23:00.963Z,79.00
2017-08-04T22:25:29.281Z,78.70
2017-08-04T22:27:57.604Z,78.40
2017-08-04T22:30:25.916Z,78.40
2017-08-04T22:32:54.242Z,78.70
2017-08-04T22:35:22.571Z,78.90
2017-08-04T22:37:50.886Z,78.60
2017-08-04T22:40:19.210Z,78.60
2017-08-04T22:42:47.521Z,78.80
2017-08-04T22:45:15.851Z,79.20
2017-08-04T22:47:44.152Z,79.70
2017-08-04T22:50:12.482Z,80.30
2017-08-04T22:52:40.796Z,80.00
2017-08-04T22:55:09.136Z,80.20
2017-08-04T22:57:37.444Z,80.40
2017-08-04T23:00:05.806Z,80.50
2017-08-04T23:02:34.120Z,80.60
2017-08-04T23:05:02.423Z,80.50
2017-08-04T23:07:30.759Z,80.40
2017-08-04T23:09:59.074Z,80.30
2017-08-04T23:12:27.400Z,80.60
2017-08-04T23:14:55.708Z,81.20
2017-08-04T23:17:24.040Z,81.20
2017-08-04T23:19:52.342Z,80.90
2017-08-04T23:22:30.719Z,81.00
2017-08-04T23:24:59.025Z,81.30
2017-08-04T23:27:27.331Z,81.40
2017-08-04T23:29:55.658Z,81.20
2017-08-04T23:32:23.207Z,81.20
2017-08-04T23:34:51.523Z,81.10
2017-08-04T23:37:19.824Z,81.10
2017-08-04T23:39:48.151Z,80.80
2017-08-04T23:42:16.466Z,80.60
2017-08-04T23:44:44.799Z,80.70
2017-08-04T23:47:13.128Z,80.80
2017-08-04T23:49:41.468Z,80.70
2017-08-04T23:52:09.777Z,80.70
2017-08-04T23:54:38.084Z,80.40
2017-08-04T23:57:06.406Z,80.30
2017-08-04T23:59:34.706Z,80.30
